createdAt,value
2023-02-17T00:04:15.767Z,44.98
2023-02-17T00:09:17.652Z,44.78
2023-02-17T00:14:19.565Z,44.72
2023-02-17T00:19:25.290Z,45.08
2023-02-17T00:24:29.657Z,44.89
2023-02-17T00:29:32.018Z,44.61
2023-02-17T00:34:33.935Z,44.76
2023-02-17T00:39:35.915Z,44.94
2023-02-17T00:44:37.660Z,44.78
2023-02-17T00:49:39.324Z,44.70
2023-02-17T00:54:42.255Z,44.74
2023-02-17T00:59:44.208Z,44.57
2023-02-17T01:04:46.264Z,44.57
2023-02-17T01:09:48.387Z,44.46
2023-02-17T01:14:50.569Z,44.45
2023-02-17T01:19:52.539Z,44.85
2023-02-17T01:24:54.460Z,44.58
2023-02-17T01:29:56.391Z,44.82
2023-02-17T01:34:58.419Z,44.58
2023-02-17T01:40:00.259Z,44.86
2023-02-17T01:45:20.028Z,44.78
2023-02-17T01:50:26.153Z,44.84
2023-02-17T01:55:28.510Z,44.81
2023-02-17T02:00:34.023Z,44.65
2023-02-17T02:05:37.828Z,44.90
2023-02-17T02:10:40.180Z,44.81
2023-02-17T02:15:52.813Z,45.08
2023-02-17T02:21:07.688Z,44.92
2023-02-17T02:26:15.593Z,44.84
2023-02-17T02:31:36.277Z,44.66
2023-02-17T02:36:42.036Z,44.90
2023-02-17T02:41:55.133Z,44.99
2023-02-17T02:46:58.820Z,44.95
2023-02-17T02:52:22.362Z,44.81
2023-02-17T02:57:50.115Z,45.06
2023-02-17T03:02:58.639Z,45.11
2023-02-17T03:08:15.939Z,44.87
2023-02-17T03:13:18.956Z,45.01
2023-02-17T03:18:20.867Z,44.96
2023-02-17T03:23:22.802Z,44.73
2023-02-17T03:28:25.192Z,44.81
2023-02-17T03:33:26.902Z,44.75
2023-02-17T03:38:28.781Z,44.88
2023-02-17T03:43:30.477Z,44.87
2023-02-17T03:48:32.531Z,45.14
2023-02-17T03:53:34.427Z,44.98
2023-02-17T03:58:36.228Z,44.95
2023-02-17T04:03:38.618Z,45.12
2023-02-17T04:08:41.038Z,44.98
2023-02-17T04:13:42.832Z,45.14
2023-02-17T04:18:44.860Z,45.08
2023-02-17T04:23:46.697Z,45.13
2023-02-17T04:28:48.758Z,44.91
2023-02-17T04:33:50.506Z,45.16
2023-02-17T04:38:55.466Z,45.12
2023-02-17T04:43:57.367Z,45.01
2023-02-17T04:48:59.162Z,45.21
2023-02-17T04:54:00.949Z,45.12
2023-02-17T04:59:02.881Z,44.85
2023-02-17T05:04:04.921Z,45.24
2023-02-17T05:09:06.766Z,44.93
2023-02-17T05:14:09.005Z,44.93
2023-02-17T05:19:11.283Z,45.06
2023-02-17T05:24:13.061Z,45.15
2023-02-17T05:29:14.956Z,45.03
2023-02-17T05:34:16.907Z,44.97
2023-02-17T05:39:18.720Z,45.18
2023-02-17T05:44:21.010Z,45.02
2023-02-17T05:49:22.882Z,45.23
2023-02-17T05:54:24.777Z,45.02
2023-02-17T05:59:26.840Z,45.07
2023-02-17T06:04:28.794Z,45.40
2023-02-17T06:09:30.683Z,45.11
2023-02-17T06:14:32.691Z,45.46
2023-02-17T06:19:34.484Z,45.22
2023-02-17T06:24:36.277Z,45.47
2023-02-17T06:29:38.144Z,45.20
2023-02-17T06:34:39.916Z,45.16
2023-02-17T06:39:41.705Z,45.30
2023-02-17T06:44:43.550Z,45.19
2023-02-17T06:49:45.443Z,45.15
2023-02-17T06:54:47.980Z,45.21
2023-02-17T06:59:49.970Z,45.16
2023-02-17T07:04:51.958Z,45.07
2023-02-17T07:09:53.899Z,45.12
2023-02-17T07:14:56.185Z,45.28
2023-02-17T07:19:58.130Z,45.46
2023-02-17T07:25:00.227Z,45.20
2023-02-17T07:30:02.314Z,45.33
2023-02-17T07:35:04.279Z,45.15
2023-02-17T07:40:06.885Z,45.49
2023-02-17T07:45:08.828Z,45.22
2023-02-17T07:50:10.893Z,45.34
2023-02-17T07:55:12.930Z,45.49
2023-02-17T08:00:15.480Z,45.35
2023-02-17T08:05:17.420Z,46.03
2023-02-17T08:10:37.742Z,47.87
2023-02-17T08:15:39.674Z,48.13
2023-02-17T08:20:41.700Z,47.58
2023-02-17T08:25:43.536Z,47.23
2023-02-17T08:30:45.531Z,47.31
2023-02-17T08:35:47.960Z,47.22
2023-02-17T08:40:49.825Z,48.41
2023-02-17T08:45:51.979Z,48.56
2023-02-17T08:50:54.313Z,49.02
2023-02-17T08:55:56.419Z,48.78
2023-02-17T09:00:58.399Z,48.41
2023-02-17T09:06:00.466Z,48.51
2023-02-17T09:11:02.647Z,47.90
2023-02-17T09:16:05.526Z,49.58
2023-02-17T09:21:10.211Z,50.16
2023-02-17T09:26:14.670Z,50.05
2023-02-17T09:31:22.665Z,49.95
2023-02-17T09:36:28.347Z,49.93
2023-02-17T09:41:48.043Z,49.70
2023-02-17T09:47:02.402Z,49.30
2023-02-17T09:52:16.889Z,49.09
2023-02-17T09:57:22.103Z,48.85
2023-02-17T10:02:29.560Z,48.74
2023-02-17T10:07:42.259Z,48.66
2023-02-17T10:12:52.428Z,48.62
2023-02-17T10:18:02.928Z,48.19
2023-02-17T10:23:10.828Z,48.32
2023-02-17T10:28:26.671Z,48.15
2023-02-17T10:34:03.546Z,48.16
2023-02-17T10:39:25.039Z,48.24
2023-02-17T10:44:27.051Z,48.53
2023-02-17T10:49:37.228Z,48.21
2023-02-17T10:54:54.600Z,48.41
2023-02-17T10:59:57.573Z,48.53
2023-02-17T11:05:00.526Z,48.07
2023-02-17T11:10:19.803Z,48.09
2023-02-17T11:15:25.870Z,47.84
2023-02-17T11:20:34.198Z,48.04
2023-02-17T11:25:38.179Z,48.27
2023-02-17T11:30:49.128Z,48.01
2023-02-17T11:35:54.568Z,48.13
2023-02-17T11:41:04.902Z,48.32
2023-02-17T11:46:39.256Z,48.60
2023-02-17T11:52:08.622Z,48.65
2023-02-17T11:57:29.043Z,48.68
2023-02-17T12:03:05.197Z,48.84
2023-02-17T12:08:24.237Z,48.87
2023-02-17T12:13:45.794Z,48.95
2023-02-17T12:19:02.123Z,48.85
2023-02-17T12:24:22.201Z,48.76
2023-02-17T12:30:07.866Z,49.20
2023-02-17T12:35:56.405Z,49.01
2023-02-17T12:41:15.396Z,48.97
2023-02-17T12:46:22.821Z,48.93
2023-02-17T12:51:50.806Z,48.68
2023-02-17T12:57:14.866Z,48.96
2023-02-17T13:02:22.624Z,48.88
2023-02-17T13:07:27.450Z,48.66
2023-02-17T13:12:29.343Z,49.08
2023-02-17T13:17:53.496Z,49.49
2023-02-17T13:23:08.066Z,49.52
2023-02-17T13:28:19.132Z,49.16
2023-02-17T13:33:20.934Z,48.83
2023-02-17T13:38:29.984Z,48.99
2023-02-17T13:43:41.150Z,48.51
2023-02-17T13:48:43.038Z,48.44
2023-02-17T13:53:51.971Z,48.62
2023-02-17T13:58:54.183Z,48.12
2023-02-17T14:03:56.978Z,48.25
2023-02-17T14:08:59.039Z,48.05
2023-02-17T14:14:02.367Z,47.72
2023-02-17T14:19:08.015Z,48.12
2023-02-17T14:24:25.868Z,47.84
2023-02-17T14:29:42.423Z,48.75
2023-02-17T14:34:44.590Z,48.71
2023-02-17T14:39:46.365Z,48.33
2023-02-17T14:44:48.234Z,48.70
2023-02-17T14:49:50.240Z,48.58
2023-02-17T14:54:52.520Z,48.52
2023-02-17T14:59:57.949Z,48.24
2023-02-17T15:05:00.035Z,48.05
2023-02-17T15:10:02.362Z,48.40
2023-02-17T15:15:04.367Z,48.12
2023-02-17T15:20:06.899Z,48.75
2023-02-17T15:25:13.234Z,49.13
2023-02-17T15:30:20.487Z,49.13
2023-02-17T15:35:25.000Z,49.21
2023-02-17T15:40:28.855Z,49.34
2023-02-17T15:45:31.158Z,49.36
2023-02-17T15:50:32.981Z,49.36
2023-02-17T15:55:35.083Z,48.92
2023-02-17T16:00:36.867Z,48.86
2023-02-17T16:05:38.954Z,48.07
2023-02-17T16:10:42.762Z,47.78
2023-02-17T16:15:45.214Z,47.88
2023-02-17T16:20:47.604Z,48.07
2023-02-17T16:25:50.713Z,48.09
2023-02-17T16:30:52.669Z,48.27
2023-02-17T16:35:54.723Z,48.49
2023-02-17T16:40:56.665Z,48.54
2023-02-17T16:46:01.544Z,48.56
2023-02-17T16:51:03.580Z,48.47
2023-02-17T16:56:28.798Z,48.20
2023-02-17T17:01:30.697Z,48.26
2023-02-17T17:06:32.714Z,47.89
2023-02-17T17:11:34.692Z,47.97
2023-02-17T17:16:37.223Z,47.61
2023-02-17T17:21:39.074Z,47.84
2023-02-17T17:26:46.552Z,47.66
2023-02-17T17:31:48.530Z,47.31
2023-02-17T17:36:50.458Z,47.81
2023-02-17T17:41:52.422Z,47.40
2023-02-17T17:46:54.728Z,47.40
2023-02-17T17:51:56.749Z,47.22
2023-02-17T17:56:58.734Z,47.43
2023-02-17T18:02:00.524Z,47.03
2023-02-17T18:07:02.506Z,47.01
2023-02-17T18:12:14.341Z,47.12
2023-02-17T18:17:18.410Z,46.90
2023-02-17T18:22:20.380Z,47.11
2023-02-17T18:27:23.281Z,46.82
2023-02-17T18:32:25.322Z,46.99
2023-02-17T18:37:27.506Z,47.04
2023-02-17T18:42:29.318Z,46.64
2023-02-17T18:47:31.985Z,46.68
2023-02-17T18:52:33.969Z,47.03
2023-02-17T18:57:36.891Z,46.86
2023-02-17T19:02:40.498Z,46.81
2023-02-17T19:07:43.116Z,46.80
2023-02-17T19:12:45.042Z,46.79
2023-02-17T19:17:49.009Z,46.67
2023-02-17T19:22:51.042Z,46.74
2023-02-17T19:27:53.172Z,46.63
2023-02-17T19:32:55.056Z,46.64
2023-02-17T19:37:56.955Z,46.48
2023-02-17T19:42:59.097Z,46.69
2023-02-17T19:48:01.248Z,46.62
2023-02-17T19:53:03.277Z,46.54
2023-02-17T19:58:05.781Z,46.43
2023-02-17T20:03:07.913Z,46.45
2023-02-17T20:08:09.984Z,46.40
2023-02-17T20:13:11.846Z,46.14
2023-02-17T20:18:13.994Z,46.20
2023-02-17T20:23:16.346Z,46.62
2023-02-17T20:28:18.696Z,47.10
2023-02-17T20:33:20.850Z,47.00
2023-02-17T20:38:23.027Z,46.85
2023-02-17T20:43:25.349Z,46.93
2023-02-17T20:48:28.229Z,46.80
2023-02-17T20:53:30.263Z,47.11
2023-02-17T20:58:32.802Z,47.04
2023-02-17T21:03:34.942Z,47.30
2023-02-17T21:08:36.907Z,47.59
2023-02-17T21:13:38.736Z,49.24
2023-02-17T21:18:40.827Z,48.21
2023-02-17T21:23:43.093Z,47.58
2023-02-17T21:28:46.457Z,47.33
2023-02-17T21:33:48.694Z,47.44
2023-02-17T21:38:50.923Z,47.36
2023-02-17T21:44:11.551Z,47.25
2023-02-17T21:49:13.920Z,47.34
2023-02-17T21:54:16.221Z,47.15
2023-02-17T21:59:18.903Z,46.88
2023-02-17T22:04:21.186Z,46.92
2023-02-17T22:09:23.248Z,47.04
2023-02-17T22:14:25.052Z,47.21
2023-02-17T22:19:29.801Z,46.95
2023-02-17T22:24:33.290Z,46.83
2023-02-17T22:29:35.057Z,47.11
2023-02-17T22:34:37.162Z,46.99
2023-02-17T22:39:38.997Z,46.67
2023-02-17T22:44:40.902Z,46.65
2023-02-17T22:49:43.308Z,46.93
2023-02-17T22:54:45.098Z,46.41
2023-02-17T22:59:47.145Z,46.46
2023-02-17T23:04:49.292Z,46.39
2023-02-17T23:09:51.314Z,46.61
2023-02-17T23:14:53.315Z,46.31
2023-02-17T23:19:55.362Z,46.44
2023-02-17T23:24:57.338Z,46.39
2023-02-17T23:29:59.181Z,46.40
2023-02-17T23:35:01.176Z,46.12
2023-02-17T23:40:04.093Z,46.22
2023-02-17T23:45:06.357Z,46.62
2023-02-17T23:50:08.900Z,46.51
2023-02-17T23:55:10.915Z,46.40
